Tuesday, July 29, 2014
23:01 UTC
  |  Log In   |  Register Free
Airport Search:

South Big Horn County Airport
(KGEY)

South Big Horn County Airport Diagram
No Airport Diagram Available

FAA data valid effective July 24, 2014 until September 18, 2014 (unless otherwise noted).

 
 
 
 
 
 
 
 
 
 
 
 
 
 

Current Aviation Weather for South Big Horn County Airport (KGEY)

The most recent METAR observation for KGEY was updated at: 1753 UTC
METAR Summary (Translated METAR)
KGEY
281753Z AUTO VRB03KT 10SM CLR 29/03 A3023 RMK AO2 SLP196 T02940033 10306 20133 58012
KWRL
(33.8 nm SE from KGEY)
281853Z AUTO VRB04KT 10SM CLR 31/07 A3022 RMK AO2 SLP184 T03110067
TAF Summary (Translated TAF)
KWRL
(33.8 nm SE from KGEY)
291720Z 2918/3018 15011G18KT P6SM VCSH BKN100 FM291900 15011G18KT P6SM VCTS SCT050CB BKN080 FM300100 VRB06KT P6SM VCSH BKN080 FM300600 VRB06KT P6SM SCT080 BKN150
KCOD
(40.3 nm NW from KGEY)
291720Z 2918/3018 07011KT P6SM VCSH SCT060 OVC100 FM291900 16007KT P6SM VCTS SCT050CB BKN100 FM300200 VRB06KT P6SM VCSH SCT100 BKN150 FM300600 20007KT P6SM SCT150 AMD LTD TO CLD VIS AND WIND
  Airport Weather Conditions for KGEY

Current weather conditions are
not available for GEY


The nearest NOAA weather station
is at WRL, (33.8 nm SE from GEY)
  
 Current Weather at WRL
66° F
Partly Cloudy
South winds at 10.4 mph
WRL NOAA Radar

Pressure: 30.28 in
Humidity: 78%
Wind: South at 10.4 MPH (9 KT)
Dew Point: 59.0°F
Visibility: 10.00 mi


Airport Weather Forecast for KGEY

Translated METAR and TAF for KGEY
Translated METAR for KGEY (2254 UTC 29 July 2014)
found at http://aviationweather.gov/adds/metars/
 
METAR text: KGEY 292153Z AUTO 16009KT 10SM CLR 22/13 A3025 RMK AO2 SLP206 T02220128
Conditions at: KGEY (GREYBULL , WY, US) observed 2153 UTC 29 July 2014
Temperature: 22.2°C (72°F)
Dewpoint: 12.8°C (55°F) [RH = 55%]
Pressure (altimeter): 30.25 inches Hg (1024.5 mb)
[Sea-level pressure: 1020.6 mb]
Winds: from the SSE (160 degrees) at 10 MPH (9 knots; 4.7 m/s)
Visibility: 10 or more miles (16+ km)
Ceiling: at least 12,000 feet AGL
Clouds: sky clear below 12,000 feet AGL
Weather: automated observation with no human augmentation;
there may or may not be significant weather present at this time
Translated TAF for KGEY

There is no translated TAF available for this airport

Find All Airport Services Find A Hotel Find A Rental Car Find A Golf Course Find A Restaurant $100 Hamburger



FBO's on the Field
FBO Company Facility Photos Services Transportation Aviation Fuel Prices: Prices include tax
Catering Weather Repair Courtesy Rental Type 100LL JetA JetA+ MOGAS 8087
 
B & G Industries, LLC

This FBO has not yet been rated
FS:Independent
Last Updated: Jul-24
Login to update fuel prices
SS:
Contact B & G Industries, LLCMore FBO Information
 
South Big Horn County Airport

This FBO has not yet been rated
FS:Independent
Last Updated: Jun-30
Login to update fuel prices
SS:
Contact South Big Horn County AirportMore FBO Information
 
Add another FBO Facility Photos Catering Weather Repair Courtesy Rental Type 100LL JetA JetA+ MOGAS 8087
Services Transportation Aviation Fuel Prices: Prices include tax


GlobalAir.com Airport Resource Center model-print
model-print
model-print
model-print